Terminal Aerodrome Forecast
Issued by NWS

Home | Current Version | Previous Version | Text Only | Print | Product List | Glossary On
Versions: 1 2 3 4 5 6 7 8 9 10 11 12 13 14 15 16 17
870
FTUS41 KPBZ 182057 AAB
TAFMGW
TAF AMD
KMGW 182057Z 1821/1918 22006KT 3SM -DZ OVC006
     FM190100 23007KT P6SM -DZ OVC010
     FM190600 23008KT P6SM OVC015=

USA.gov is the U.S. government's official web portal to all federal, state and local government web resources and services.